Terminal Aerodrome Forecast
Issued by NWS

Home | Current Version | Previous Version | Text Only | Print | Product List | Glossary On
Versions: 1 2 3 4 5 6 7 8 9 10 11 12 13
911
FTUS43 KICT 222335
TAFRSL
TAF
KRSL 222335Z 2300/2324 35004KT P6SM OVC300
     FM230300 06005KT P6SM OVC250
     FM230800 06013KT P6SM OVC200
     FM231000 07013KT P6SM OVC120
     FM231300 08017G22KT P6SM SCT020 OVC080=

USA.gov is the U.S. government's official web portal to all federal, state and local government web resources and services.